Time;durP1;ratioP1;P1;durP2;ratioP2;P2;SDS_P1;SDS_P2;PMS_P1;PMS_P2;Temp;Humidity;BMP_temperature;BMP_pressure;BME280_temperature;BME280_humidity;BME280_pressure;Samples;Min_cycle;Max_cycle;Signal;HPM_P1;HPM_P2
2023/05/27 00:01:57;;;;;;;3.78;2.67;;;;;;;17.58;82.40;99572.06;5131301;27;20035;-82
2023/05/27 00:04:23;;;;;;;5.78;2.50;;;;;;;17.36;82.04;99540.16;5131525;27;20043;-80
2023/05/27 00:06:48;;;;;;;3.10;2.60;;;;;;;17.49;82.33;99561.81;5131713;27;20042;-80
2023/05/27 00:09:14;;;;;;;3.70;2.50;;;;;;;17.63;81.96;99583.34;5131090;27;20038;-80
2023/05/27 00:11:40;;;;;;;5.35;2.78;;;;;;;17.12;82.66;99542.97;5131033;27;20080;-81
2023/05/27 00:14:05;;;;;;;4.53;2.70;;;;;;;17.22;82.92;99554.09;5131704;27;20434;-81
2023/05/27 00:16:31;;;;;;;6.85;3.08;;;;;;;17.60;81.52;99572.84;5130864;27;20039;-83
2023/05/27 00:18:57;;;;;;;4.60;2.42;;;;;;;17.71;81.21;99583.88;5129770;27;20031;-81
2023/05/27 00:21:23;;;;;;;11.77;2.00;;;;;;;17.53;81.74;99577.59;5130843;27;20031;-80
2023/05/27 00:23:51;;;;;;;3.63;2.28;;;;;;;17.46;81.64;99552.13;5130349;27;20037;-80
2023/05/27 00:26:16;;;;;;;4.82;2.60;;;;;;;17.58;81.17;99565.81;5131730;27;20027;-80
2023/05/27 00:28:42;;;;;;;2.92;1.75;;;;;;;17.38;79.99;99524.97;5131150;27;20095;-80
2023/05/27 00:31:07;;;;;;;4.22;1.75;;;;;;;17.53;79.27;99537.59;5130869;27;20030;-81
2023/05/27 00:33:33;;;;;;;4.75;1.45;;;;;;;17.62;77.65;99538.94;5131151;27;20023;-81
2023/05/27 00:35:58;;;;;;;3.38;2.00;;;;;;;17.60;76.79;99526.63;5130342;27;20027;-81
2023/05/27 00:38:24;;;;;;;2.70;1.85;;;;;;;17.45;76.04;99537.06;5129128;27;20035;-81
2023/05/27 00:40:52;;;;;;;2.33;1.63;;;;;;;17.57;75.94;99532.13;5131163;27;20061;-81
2023/05/27 00:43:17;;;;;;;5.90;2.85;;;;;;;17.85;74.79;99529.00;5130928;27;20027;-82
2023/05/27 00:45:43;;;;;;;5.18;2.38;;;;;;;18.10;73.44;99542.06;5130760;27;20030;-82
2023/05/27 00:48:09;;;;;;;2.42;1.50;;;;;;;17.68;74.33;99536.00;5130837;27;20400;-82
2023/05/27 00:50:34;;;;;;;4.38;2.05;;;;;;;17.39;73.97;99493.81;5130428;27;20102;-81
2023/05/27 00:53:00;;;;;;;4.95;2.15;;;;;;;17.84;74.39;99556.63;5131183;27;20415;-81
2023/05/27 00:55:26;;;;;;;2.97;1.70;;;;;;;18.01;73.95;99547.84;5131126;27;20035;-80
2023/05/27 00:57:55;;;;;;;2.45;1.80;;;;;;;17.98;72.93;99507.97;5130381;27;20061;-81
2023/05/27 01:00:21;;;;;;;2.78;1.52;;;;;;;18.05;73.22;99506.72;5131154;27;20019;-81
2023/05/27 01:02:47;;;;;;;5.05;1.98;;;;;;;18.06;73.04;99500.47;5130694;27;20095;-81
2023/05/27 01:05:16;;;;;;;5.18;2.72;;;;;;;18.23;72.99;99537.84;5130216;27;20119;-80
2023/05/27 01:08:02;;;;;;;3.83;1.70;;;;;;;18.37;71.80;99518.47;5129237;28;20050;-81
2023/05/27 01:10:50;;;;;;;3.75;2.20;;;;;;;18.43;71.92;99552.03;5130434;27;20117;-80
2023/05/27 01:13:44;;;;;;;4.45;2.38;;;;;;;18.46;71.32;99553.66;5131154;27;20114;-80
2023/05/27 01:16:12;;;;;;;4.18;2.67;;;;;;;18.38;71.74;99562.94;5130668;27;20515;-83
2023/05/27 01:18:41;;;;;;;4.63;1.58;;;;;;;18.39;71.75;99547.78;5130128;27;20095;-81
2023/05/27 01:21:12;;;;;;;3.17;1.65;;;;;;;18.35;70.96;99524.84;5130886;27;20027;-80
2023/05/27 01:23:40;;;;;;;4.20;2.35;;;;;;;18.40;70.84;99545.03;5129218;28;20543;-81
2023/05/27 01:26:06;;;;;;;5.68;2.28;;;;;;;18.41;71.00;99516.50;5130517;27;20046;-81
2023/05/27 01:28:31;;;;;;;2.88;2.47;;;;;;;18.64;70.69;99551.91;5130198;27;20473;-81
2023/05/27 01:31:17;;;;;;;3.80;2.10;;;;;;;18.61;70.54;99563.59;5130461;27;20102;-81
2023/05/27 01:33:59;;;;;;;2.83;1.90;;;;;;;18.61;70.44;99540.44;5128526;28;20420;-81
2023/05/27 01:36:28;;;;;;;4.95;2.03;;;;;;;18.61;70.36;99532.41;5132814;27;20038;-82
2023/05/27 01:38:55;;;;;;;2.88;2.03;;;;;;;18.80;69.52;99547.50;5134288;27;20059;-81
2023/05/27 01:41:22;;;;;;;1.35;1.23;;;;;;;18.74;69.38;99527.31;5134523;27;20031;-80
2023/05/27 01:43:49;;;;;;;4.22;2.58;;;;;;;18.83;68.76;99523.31;5134148;27;20031;-81
2023/05/27 01:46:15;;;;;;;2.67;1.77;;;;;;;18.60;70.00;99543.19;5132577;27;20051;-82
2023/05/27 01:48:40;;;;;;;7.13;1.67;;;;;;;18.50;69.97;99526.72;5134140;27;20058;-81
2023/05/27 01:51:06;;;;;;;2.58;1.48;;;;;;;18.34;70.23;99528.47;5134134;27;20111;-81
2023/05/27 01:53:32;;;;;;;4.07;1.98;;;;;;;18.33;70.40;99526.72;5134169;27;20079;-81
2023/05/27 01:55:57;;;;;;;2.92;1.92;;;;;;;18.60;69.73;99554.72;5132016;27;20037;-81
2023/05/27 01:58:22;;;;;;;4.82;1.77;;;;;;;18.58;69.47;99523.69;5134002;27;20027;-81
2023/05/27 02:00:48;;;;;;;4.72;2.17;;;;;;;18.58;69.33;99529.91;5133603;27;20024;-80
2023/05/27 02:03:13;;;;;;;2.20;1.42;;;;;;;18.37;69.98;99523.81;5133728;27;20047;-80
2023/05/27 02:05:40;;;;;;;8.35;1.70;;;;;;;18.23;69.94;99519.16;5134596;27;20499;-80
2023/05/27 02:08:05;;;;;;;3.65;1.90;;;;;;;18.19;70.04;99508.72;5134144;27;20084;-80
2023/05/27 02:10:31;;;;;;;2.55;1.90;;;;;;;18.24;69.62;99504.91;5133477;27;20030;-80
2023/05/27 02:12:56;;;;;;;3.20;1.60;;;;;;;18.47;70.00;99532.22;5134070;27;20028;-80
2023/05/27 02:15:23;;;;;;;7.15;1.75;;;;;;;18.34;69.30;99505.28;5134199;27;20027;-81
2023/05/27 02:17:54;;;;;;;12.80;1.83;;;;;;;18.46;68.95;99526.97;5132914;27;20031;-80
2023/05/27 02:20:23;;;;;;;4.35;2.05;;;;;;;18.41;68.94;99503.16;5133719;27;20031;-80
2023/05/27 02:22:51;;;;;;;2.83;2.00;;;;;;;18.44;68.77;99508.34;5133132;27;20087;-80
2023/05/27 02:25:17;;;;;;;2.35;1.80;;;;;;;18.74;68.09;99513.09;5134150;27;20031;-81
2023/05/27 02:27:46;;;;;;;6.72;1.42;;;;;;;18.86;68.55;99531.19;5133483;27;20083;-81
2023/05/27 02:30:13;;;;;;;5.63;2.17;;;;;;;18.74;67.65;99492.56;5133627;27;20039;-81
2023/05/27 02:32:38;;;;;;;4.25;2.13;;;;;;;18.65;68.15;99494.88;5133086;27;20031;-81
2023/05/27 02:35:04;;;;;;;2.72;1.63;;;;;;;18.79;68.50;99505.69;5133735;27;20023;-80
2023/05/27 02:37:29;;;;;;;4.55;1.52;;;;;;;18.75;67.63;99480.06;5133186;27;20138;-80
2023/05/27 02:39:56;;;;;;;5.40;2.15;;;;;;;18.98;67.33;99499.41;5133297;27;20072;-80
2023/05/27 02:42:21;;;;;;;6.93;2.53;;;;;;;19.31;66.67;99524.34;5133026;27;20080;-81
2023/05/27 02:44:47;;;;;;;3.38;2.35;;;;;;;19.24;66.77;99498.03;5133318;27;20466;-81
2023/05/27 02:47:13;;;;;;;2.72;1.70;;;;;;;19.32;67.39;99510.03;5132328;27;20417;-81
2023/05/27 02:49:39;;;;;;;2.60;1.63;;;;;;;19.21;68.39;99525.78;5133260;27;20126;-81
2023/05/27 02:52:05;;;;;;;3.17;1.77;;;;;;;19.22;68.57;99514.16;5133932;27;20443;-81
2023/05/27 02:54:30;;;;;;;3.53;1.77;;;;;;;19.22;69.47;99542.72;5133122;27;20027;-80
2023/05/27 02:56:56;;;;;;;3.33;1.85;;;;;;;18.92;68.93;99493.47;5133513;27;20027;-81
2023/05/27 02:59:21;;;;;;;3.40;1.73;;;;;;;19.15;68.82;99523.44;5133380;27;20027;-81
2023/05/27 03:01:46;;;;;;;3.65;2.22;;;;;;;19.12;69.24;99521.81;5133385;27;20502;-82
2023/05/27 03:04:12;;;;;;;1.58;1.30;;;;;;;19.21;68.89;99551.66;5131937;27;20043;-81
2023/05/27 03:06:37;;;;;;;2.63;2.10;;;;;;;19.09;68.96;99548.72;5132974;27;20035;-80
2023/05/27 03:09:03;;;;;;;5.45;2.03;;;;;;;18.97;69.29;99522.63;5132452;27;20039;-81
2023/05/27 03:11:29;;;;;;;4.10;1.80;;;;;;;19.10;68.50;99546.88;5133532;27;20027;-80
2023/05/27 03:13:54;;;;;;;2.17;1.10;;;;;;;19.11;68.88;99533.44;5132606;27;20106;-82
2023/05/27 03:16:20;;;;;;;2.05;1.73;;;;;;;19.02;68.44;99533.06;5132899;27;20038;-82
2023/05/27 03:18:45;;;;;;;8.43;2.50;;;;;;;19.25;68.36;99562.13;5131620;27;20106;-82
2023/05/27 03:21:13;;;;;;;4.03;2.33;;;;;;;19.21;68.41;99551.66;5130851;27;20038;-82
2023/05/27 03:23:38;;;;;;;2.63;1.75;;;;;;;19.24;67.56;99544.34;5132086;27;20111;-82
2023/05/27 03:26:04;;;;;;;3.45;1.75;;;;;;;19.44;67.22;99566.47;5131809;27;20496;-83
2023/05/27 03:28:29;;;;;;;5.07;2.08;;;;;;;19.27;67.15;99535.28;5132359;27;20477;-83
2023/05/27 03:30:55;;;;;;;2.60;1.83;;;;;;;19.38;66.74;99556.97;5131817;27;20038;-83
2023/05/27 03:33:25;;;;;;;2.38;1.58;;;;;;;19.38;66.55;99561.47;5132268;27;20507;-83
2023/05/27 03:35:51;;;;;;;2.20;1.63;;;;;;;19.29;67.04;99563.69;5130229;27;20108;-83
2023/05/27 03:38:16;;;;;;;10.27;2.17;;;;;;;19.10;67.07;99534.38;5132349;27;20096;-83
2023/05/27 03:40:41;;;;;;;6.00;3.15;;;;;;;19.09;67.15;99534.44;5131606;27;20035;-83
2023/05/27 03:43:07;;;;;;;3.25;2.00;;;;;;;18.91;67.80;99542.50;5131919;27;20399;-82
2023/05/27 03:45:32;;;;;;;2.05;1.30;;;;;;;19.21;66.71;99533.81;5132469;27;20062;-82
2023/05/27 03:47:58;;;;;;;2.78;1.33;;;;;;;19.01;66.76;99528.66;5131855;27;20475;-82
2023/05/27 03:50:24;;;;;;;3.08;1.92;;;;;;;19.12;66.59;99542.31;5131941;27;20110;-82
2023/05/27 03:52:49;;;;;;;2.70;1.45;;;;;;;19.14;66.41;99541.28;5132032;27;20491;-83
2023/05/27 03:55:16;;;;;;;3.45;1.83;;;;;;;19.19;66.31;99541.06;5132058;27;20027;-81
2023/05/27 03:57:42;;;;;;;6.18;1.30;;;;;;;19.41;65.91;99562.16;5130741;27;20475;-82
2023/05/27 04:00:11;;;;;;;4.35;2.17;;;;;;;19.05;65.25;99496.34;5131353;27;20034;-83
2023/05/27 04:02:37;;;;;;;4.70;1.60;;;;;;;19.42;65.41;99550.53;5129341;27;20035;-82
2023/05/27 04:05:03;;;;;;;2.70;1.55;;;;;;;19.29;64.75;99557.47;5131788;27;20042;-82
2023/05/27 04:07:28;;;;;;;2.63;1.80;;;;;;;19.29;64.83;99534.28;5131650;27;20037;-82
2023/05/27 04:09:55;;;;;;;2.05;1.30;;;;;;;19.08;65.23;99522.91;5131982;27;20039;-82
2023/05/27 04:12:20;;;;;;;2.05;1.85;;;;;;;19.17;65.48;99539.41;5131232;27;20115;-84
2023/05/27 04:14:46;;;;;;;2.63;1.77;;;;;;;19.31;65.88;99575.16;5130083;27;20092;-82
2023/05/27 04:17:13;;;;;;;3.97;2.10;;;;;;;19.08;65.89;99554.13;5131522;27;20059;-82
2023/05/27 04:19:38;;;;;;;3.92;1.85;;;;;;;19.16;66.40;99556.41;5131136;27;20441;-82
2023/05/27 04:22:04;;;;;;;2.35;1.95;;;;;;;19.08;66.13;99546.13;5130944;27;20076;-82
2023/05/27 04:24:30;;;;;;;1.50;1.40;;;;;;;19.27;65.33;99537.97;5131027;27;20039;-82
2023/05/27 04:26:55;;;;;;;5.47;2.35;;;;;;;19.39;64.71;99531.97;5131187;27;20115;-82
2023/05/27 04:29:22;;;;;;;4.15;2.13;;;;;;;19.61;64.54;99562.91;5111568;27;20043;-84
2023/05/27 04:31:48;;;;;;;19.95;1.95;;;;;;;19.72;63.98;99571.19;5130334;27;20481;-82
2023/05/27 04:34:13;;;;;;;2.30;1.50;;;;;;;19.79;64.62;99577.97;5122203;27;20080;-83
2023/05/27 04:36:39;;;;;;;3.60;1.58;;;;;;;19.77;63.04;99539.75;5123505;27;20408;-82
2023/05/27 04:39:04;;;;;;;6.78;1.80;;;;;;;20.08;61.82;99554.09;5112014;27;20413;-82
2023/05/27 04:41:32;;;;;;;3.03;1.65;;;;;;;20.44;61.94;99609.19;5124396;27;20084;-82
2023/05/27 04:44:00;;;;;;;7.53;2.20;;;;;;;20.44;62.04;99593.09;5116584;27;20076;-82
2023/05/27 04:46:26;;;;;;;3.15;1.63;;;;;;;20.38;61.67;99564.84;5130150;27;20532;-82
2023/05/27 04:48:55;;;;;;;3.17;2.13;;;;;;;20.31;61.93;99568.84;5123565;27;20126;-81
2023/05/27 04:51:21;;;;;;;2.40;1.40;;;;;;;20.51;62.71;99585.56;5119526;27;20032;-82
2023/05/27 04:53:50;;;;;;;2.00;1.52;;;;;;;20.52;63.63;99588.16;5123695;27;20516;-82
2023/05/27 04:56:17;;;;;;;3.40;1.63;;;;;;;20.43;63.43;99593.19;5110156;28;20717;-82
2023/05/27 04:58:46;;;;;;;2.72;1.88;;;;;;;20.29;63.69;99578.75;5110624;27;20036;-82
2023/05/27 05:01:17;;;;;;;5.32;1.50;;;;;;;20.35;63.12;99583.75;5115200;27;20110;-82
2023/05/27 05:06:29;;;;;;;3.75;1.98;;;;;;;20.09;63.09;99571.00;5129353;28;20037;-82
2023/05/27 05:08:55;;;;;;;4.50;1.75;;;;;;;20.44;62.26;99598.47;5123900;27;20024;-83
2023/05/27 05:11:21;;;;;;;3.85;1.27;;;;;;;20.59;61.54;99596.72;5120812;27;20065;-83
2023/05/27 05:13:46;;;;;;;2.38;1.70;;;;;;;20.71;62.29;99604.09;5129909;27;20032;-84
2023/05/27 05:16:12;;;;;;;4.10;1.25;;;;;;;20.64;61.57;99578.53;5128915;27;20035;-83
2023/05/27 05:18:38;;;;;;;2.30;1.30;;;;;;;21.17;61.30;99613.88;5135264;27;20031;-83
2023/05/27 05:21:03;;;;;;;2.42;1.80;;;;;;;21.21;60.59;99614.53;5131356;27;20153;-83
2023/05/27 05:23:29;;;;;;;2.95;1.50;;;;;;;20.71;60.96;99563.88;5132183;27;20144;-84
2023/05/27 05:25:58;;;;;;;3.63;2.10;;;;;;;20.83;61.62;99586.38;5132884;27;20062;-83
2023/05/27 05:28:23;;;;;;;2.30;1.55;;;;;;;21.28;60.80;99615.91;5134464;27;20019;-83
2023/05/27 05:30:49;;;;;;;1.73;1.13;;;;;;;21.44;60.62;99589.00;5135003;27;20499;-83
2023/05/27 05:33:15;;;;;;;7.25;1.70;;;;;;;21.59;60.28;99569.28;5121840;27;20517;-82
2023/05/27 05:35:40;;;;;;;2.97;1.58;;;;;;;21.41;60.14;99592.75;5126127;27;20109;-83
2023/05/27 05:38:07;;;;;;;3.08;1.48;;;;;;;21.25;59.14;99619.63;5124860;27;20481;-83
2023/05/27 05:40:32;;;;;;;3.60;2.00;;;;;;;21.26;59.16;99602.59;5124972;27;20046;-84
2023/05/27 05:42:57;;;;;;;3.33;1.55;;;;;;;21.09;58.87;99597.38;5122650;27;20453;-82
2023/05/27 05:45:23;;;;;;;2.17;1.35;;;;;;;21.18;60.02;99577.16;5122722;27;20036;-83
2023/05/27 05:47:48;;;;;;;4.72;1.60;;;;;;;21.12;59.97;99589.16;5121140;27;20496;-82
2023/05/27 05:50:14;;;;;;;4.10;1.00;;;;;;;21.06;59.25;99610.97;5125284;27;20023;-83
2023/05/27 05:52:39;;;;;;;1.40;1.25;;;;;;;21.05;61.05;99588.69;5124274;27;20096;-84
2023/05/27 05:55:05;;;;;;;5.93;1.90;;;;;;;21.26;60.16;99607.94;5120666;27;20510;-83
2023/05/27 05:57:32;;;;;;;1.90;1.48;;;;;;;21.26;60.04;99580.28;5125481;27;20084;-83
2023/05/27 05:59:57;;;;;;;3.17;1.83;;;;;;;21.34;61.52;99603.94;5127733;27;20030;-84
2023/05/27 06:02:25;;;;;;;2.35;1.55;;;;;;;21.35;60.38;99597.59;5117664;27;20035;-83
2023/05/27 06:04:50;;;;;;;4.95;2.88;;;;;;;21.52;61.31;99624.31;5132678;27;20481;-81
2023/05/27 06:07:16;;;;;;;3.38;2.03;;;;;;;21.56;61.11;99595.47;5121439;27;20051;-84
2023/05/27 06:09:41;;;;;;;2.95;1.60;;;;;;;21.66;58.82;99612.72;5125274;27;20546;-83
2023/05/27 06:12:07;;;;;;;2.45;1.60;;;;;;;21.78;58.09;99643.28;5131458;27;20034;-82
2023/05/27 06:14:32;;;;;;;2.78;1.50;;;;;;;21.83;57.93;99622.41;5124927;27;20080;-83
2023/05/27 06:16:58;;;;;;;2.60;1.85;;;;;;;21.77;58.14;99590.56;5116378;27;20024;-84
2023/05/27 06:19:23;;;;;;;2.63;1.85;;;;;;;21.88;58.28;99640.91;5115260;27;20055;-83
2023/05/27 06:21:49;;;;;;;2.05;1.63;;;;;;;21.38;58.24;99619.75;5122362;27;20034;-84
2023/05/27 06:24:15;;;;;;;3.17;1.98;;;;;;;21.19;59.69;99606.59;5127857;27;20100;-85
2023/05/27 06:26:40;;;;;;;3.88;2.40;;;;;;;21.20;59.78;99621.72;5128793;27;20058;-82
2023/05/27 06:29:06;;;;;;;9.30;1.35;;;;;;;21.14;59.59;99658.78;5131921;27;20026;-82
2023/05/27 06:31:33;;;;;;;1.77;1.02;;;;;;;20.93;58.11;99640.34;5124372;27;20412;-83
2023/05/27 06:33:58;;;;;;;3.42;2.03;;;;;;;21.04;59.29;99640.56;5127436;27;20027;-85
2023/05/27 06:36:24;;;;;;;4.70;2.40;;;;;;;21.21;58.34;99609.16;5121897;27;20528;-86
2023/05/27 06:38:49;;;;;;;12.77;2.75;;;;;;;21.46;57.52;99635.41;5120013;27;20454;-82
2023/05/27 06:41:15;;;;;;;5.88;2.70;;;;;;;21.44;58.32;99632.81;5119104;27;20035;-82
2023/05/27 06:43:41;;;;;;;2.97;1.65;;;;;;;21.70;57.40;99626.81;5127096;27;20588;-82
2023/05/27 06:46:07;;;;;;;5.43;1.90;;;;;;;21.69;56.52;99639.38;5111114;28;20097;-81
2023/05/27 06:48:33;;;;;;;2.95;1.40;;;;;;;21.55;56.18;99642.03;5109987;28;20043;-82
2023/05/27 06:50:59;;;;;;;2.13;1.92;;;;;;;21.70;55.46;99661.69;5111702;28;20035;-82
2023/05/27 06:53:24;;;;;;;3.08;1.52;;;;;;;21.83;55.32;99654.63;5113035;27;20043;-81
2023/05/27 06:55:50;;;;;;;2.55;0.90;;;;;;;21.91;54.27;99651.47;5125252;27;20054;-81
2023/05/27 06:58:15;;;;;;;3.50;1.60;;;;;;;22.04;54.22;99640.81;5130787;27;20452;-81
2023/05/27 07:00:41;;;;;;;1.80;1.45;;;;;;;22.29;54.58;99661.56;5129254;27;20463;-81
2023/05/27 07:03:06;;;;;;;13.52;2.00;;;;;;;22.25;54.32;99631.38;5132671;27;20062;-81
2023/05/27 07:05:32;;;;;;;5.07;1.23;;;;;;;22.28;54.32;99649.97;5124447;27;20042;-81
2023/05/27 07:07:57;;;;;;;5.90;1.15;;;;;;;22.36;54.39;99662.94;5130388;27;20032;-81
2023/05/27 07:10:22;;;;;;;2.05;1.40;;;;;;;22.59;53.14;99691.03;5119126;27;20038;-82
2023/05/27 07:12:48;;;;;;;5.82;1.58;;;;;;;22.58;53.73;99670.47;5110676;28;20035;-81
2023/05/27 07:15:13;;;;;;;2.58;1.52;;;;;;;22.43;54.57;99675.03;5112161;28;20030;-82
2023/05/27 07:17:39;;;;;;;5.05;1.27;;;;;;;22.17;54.63;99680.22;5112265;28;20069;-83
2023/05/27 07:20:05;;;;;;;3.22;2.17;;;;;;;22.38;55.30;99673.59;5111562;28;20413;-83
2023/05/27 07:22:30;;;;;;;7.40;1.80;;;;;;;22.25;56.44;99657.38;5115017;27;20119;-84
2023/05/27 07:24:57;;;;;;;5.43;2.88;;;;;;;22.35;58.02;99661.22;5130934;27;20585;-82
2023/05/27 07:27:22;;;;;;;4.90;3.20;;;;;;;22.53;58.89;99678.84;5132114;27;20019;-81
2023/05/27 07:29:48;;;;;;;2.92;2.22;;;;;;;22.35;59.75;99661.22;5130088;27;20536;-84
2023/05/27 07:32:13;;;;;;;7.45;5.20;;;;;;;22.24;61.08;99667.25;5130661;27;21635;-85
2023/05/27 07:34:39;;;;;;;3.28;2.40;;;;;;;21.80;61.84;99628.81;5131448;27;20452;-84
2023/05/27 07:37:04;;;;;;;2.47;1.45;;;;;;;21.52;64.02;99645.78;5131180;27;20027;-83
2023/05/27 07:39:30;;;;;;;5.55;2.30;;;;;;;21.27;64.33;99647.25;5132103;27;20054;-84
2023/05/27 07:41:55;;;;;;;4.15;1.50;;;;;;;21.40;65.08;99660.78;5132574;27;20549;-83
2023/05/27 07:44:21;;;;;;;2.65;1.77;;;;;;;21.59;65.84;99646.25;5131521;27;20401;-83
2023/05/27 07:46:46;;;;;;;4.30;3.05;;;;;;;21.70;65.81;99641.09;5131189;27;20076;-83
2023/05/27 07:49:14;;;;;;;7.22;4.00;;;;;;;21.96;67.13;99678.88;5130624;27;20023;-82
2023/05/27 07:51:40;;;;;;;6.40;4.50;;;;;;;22.13;66.86;99659.00;5128255;27;20118;-83
2023/05/27 07:54:06;;;;;;;3.65;1.88;;;;;;;21.76;63.71;99624.59;5130215;27;20035;-86
2023/05/27 07:56:31;;;;;;;3.13;1.70;;;;;;;21.63;64.50;99659.41;5131286;27;20469;-82
2023/05/27 07:58:57;;;;;;;3.28;2.08;;;;;;;22.26;64.73;99659.09;5130633;27;20084;-81
2023/05/27 08:01:22;;;;;;;16.17;2.55;;;;;;;22.65;65.56;99668.25;5129334;27;20124;-81
2023/05/27 08:03:48;;;;;;;2.88;2.20;;;;;;;22.49;63.57;99674.63;5130534;27;20489;-82
2023/05/27 08:06:13;;;;;;;2.72;1.65;;;;;;;22.32;62.40;99632.75;5130751;27;20472;-81
2023/05/27 08:08:39;;;;;;;6.97;2.33;;;;;;;22.70;63.16;99672.34;5130293;27;20046;-83
2023/05/27 08:11:04;;;;;;;3.40;2.15;;;;;;;22.03;62.38;99676.66;5131048;27;20080;-81
2023/05/27 08:13:33;;;;;;;5.60;2.42;;;;;;;22.11;62.46;99683.28;5130813;27;20031;-82
2023/05/27 08:15:58;;;;;;;4.57;1.77;;;;;;;21.70;62.81;99675.97;5127942;27;20092;-81
2023/05/27 08:18:24;;;;;;;4.35;2.80;;;;;;;21.61;63.81;99622.88;5130783;27;20027;-82
2023/05/27 08:20:49;;;;;;;7.50;3.97;;;;;;;21.81;64.77;99656.53;5129688;27;20035;-84
2023/05/27 08:23:15;;;;;;;8.43;4.30;;;;;;;21.72;65.10;99665.16;5130301;27;20412;-82
2023/05/27 08:25:40;;;;;;;3.58;2.47;;;;;;;21.98;65.35;99693.94;5129654;27;20023;-81
2023/05/27 08:28:06;;;;;;;3.25;1.77;;;;;;;21.73;66.40;99661.50;5129476;27;20023;-83
2023/05/27 08:30:32;;;;;;;5.15;3.35;;;;;;;21.95;64.60;99672.66;5127767;27;20992;-83
2023/05/27 08:32:58;;;;;;;5.95;3.72;;;;;;;22.15;64.47;99684.81;5121918;27;20416;-82
2023/05/27 08:35:23;;;;;;;4.43;2.80;;;;;;;21.79;64.07;99674.56;5130011;27;20047;-82
2023/05/27 08:37:49;;;;;;;4.05;2.35;;;;;;;21.79;63.25;99696.03;5127712;27;20334;-83
2023/05/27 08:40:18;;;;;;;4.65;2.88;;;;;;;21.66;65.43;99697.72;5120854;27;20412;-82
2023/05/27 08:42:44;;;;;;;2.65;1.95;;;;;;;21.72;65.92;99686.63;5115648;27;20104;-81
2023/05/27 08:45:10;;;;;;;4.00;1.90;;;;;;;21.70;65.25;99673.28;5124875;27;20496;-81
2023/05/27 08:47:38;;;;;;;3.60;1.63;;;;;;;21.84;64.84;99701.97;5129677;27;20038;-82
2023/05/27 08:50:04;;;;;;;6.97;2.10;;;;;;;21.92;64.47;99678.22;5130334;27;20031;-83
2023/05/27 08:52:30;;;;;;;3.72;2.20;;;;;;;22.15;63.81;99670.50;5130322;27;20038;-81
2023/05/27 08:54:59;;;;;;;7.03;2.33;;;;;;;22.34;64.14;99687.22;5130354;27;20068;-81
2023/05/27 08:57:29;;;;;;;3.35;1.92;;;;;;;22.31;64.64;99683.88;5131554;27;20087;-81
2023/05/27 08:59:55;;;;;;;2.42;1.63;;;;;;;22.15;61.90;99659.78;5130747;27;20080;-81
2023/05/27 09:02:22;;;;;;;2.50;1.65;;;;;;;22.50;64.21;99697.84;5130308;27;20027;-82
2023/05/27 09:04:50;;;;;;;4.65;1.98;;;;;;;22.12;62.37;99646.53;5130201;27;20534;-82
2023/05/27 09:07:17;;;;;;;3.17;2.15;;;;;;;22.55;62.06;99685.94;5130781;27;20049;-81
2023/05/27 09:09:43;;;;;;;4.40;2.00;;;;;;;22.56;62.75;99690.38;5131108;27;20084;-81
2023/05/27 09:12:08;;;;;;;4.45;2.67;;;;;;;22.76;63.54;99683.69;5130635;27;20035;-82
2023/05/27 09:14:37;;;;;;;2.92;1.90;;;;;;;22.57;63.37;99668.75;5130998;28;20027;-81
2023/05/27 09:17:06;;;;;;;5.28;1.80;;;;;;;22.69;61.14;99667.97;5130492;27;20034;-82
2023/05/27 09:19:32;;;;;;;6.60;2.60;;;;;;;22.77;60.54;99691.66;5131318;27;20019;-81
2023/05/27 09:21:57;;;;;;;6.53;2.10;;;;;;;22.74;61.69;99666.78;5130730;27;20030;-81
2023/05/27 09:24:24;;;;;;;3.55;1.67;;;;;;;22.55;62.14;99667.13;5130536;27;20031;-80
2023/05/27 09:26:53;;;;;;;4.03;2.10;;;;;;;22.68;62.24;99684.19;5130584;27;20059;-81
2023/05/27 09:29:19;;;;;;;1.80;1.33;;;;;;;22.70;62.69;99682.25;5130413;27;20403;-81
2023/05/27 09:31:45;;;;;;;6.32;2.03;;;;;;;22.65;63.50;99682.56;5129257;28;20457;-81
2023/05/27 09:34:12;;;;;;;5.07;3.25;;;;;;;22.70;63.33;99658.91;5130848;27;20038;-80
2023/05/27 09:36:45;;;;;;;12.63;2.67;;;;;;;23.10;62.65;99679.63;5130259;27;20031;-83
2023/05/27 09:39:12;;;;;;;3.40;1.77;;;;;;;22.85;62.18;99672.31;5130514;27;20125;-83
2023/05/27 09:41:38;;;;;;;5.60;3.00;;;;;;;23.00;60.39;99667.72;5131236;27;20041;-82
2023/05/27 09:44:07;;;;;;;5.88;2.28;;;;;;;22.96;61.13;99682.38;5130757;27;20027;-81
2023/05/27 09:46:33;;;;;;;4.30;1.95;;;;;;;22.99;61.59;99685.72;5131281;27;20035;-81
2023/05/27 09:49:00;;;;;;;3.60;1.35;;;;;;;22.89;62.73;99650.50;5130491;27;20402;-82
2023/05/27 09:51:29;;;;;;;2.95;1.60;;;;;;;22.99;62.11;99645.34;5131004;27;20118;-82
2023/05/27 09:53:56;;;;;;;3.90;1.92;;;;;;;23.11;61.96;99658.97;5130306;27;20113;-81
2023/05/27 09:56:29;;;;;;;6.32;2.35;;;;;;;23.06;61.96;99668.19;5131188;27;20110;-83
2023/05/27 09:58:56;;;;;;;3.70;2.63;;;;;;;23.08;62.38;99641.19;5134504;27;20038;-82
2023/05/27 10:01:28;;;;;;;5.28;2.30;;;;;;;22.98;64.19;99654.38;5134589;27;20519;-81
2023/05/27 10:03:54;;;;;;;3.72;2.05;;;;;;;22.92;63.67;99664.69;5133764;27;20058;-83
2023/05/27 10:06:21;;;;;;;4.10;2.28;;;;;;;23.06;63.31;99664.63;5134358;27;20194;-83
2023/05/27 10:08:47;;;;;;;4.57;2.40;;;;;;;23.25;60.22;99626.63;5134148;27;20076;-83
2023/05/27 10:11:13;;;;;;;3.38;2.03;;;;;;;23.63;57.92;99657.22;5134080;27;20110;-83
2023/05/27 10:13:40;;;;;;;2.55;1.35;;;;;;;23.62;60.20;99640.22;5134253;27;20035;-83
2023/05/27 10:16:06;;;;;;;2.30;1.98;;;;;;;23.28;58.95;99634.47;5134020;27;20027;-83
2023/05/27 10:18:33;;;;;;;2.88;1.67;;;;;;;23.54;58.18;99612.94;5134020;27;20042;-82
2023/05/27 10:21:03;;;;;;;6.55;1.80;;;;;;;24.13;56.13;99656.34;5134051;27;20027;-82
2023/05/27 10:23:33;;;;;;;3.45;2.22;;;;;;;24.10;57.34;99648.50;5133399;27;20055;-81
2023/05/27 10:26:06;;;;;;;3.20;1.85;;;;;;;23.94;58.36;99645.16;5133413;27;20046;-81
2023/05/27 10:28:39;;;;;;;2.45;1.70;;;;;;;24.07;56.94;99637.09;5133717;27;20051;-81
2023/05/27 10:31:06;;;;;;;2.80;1.60;;;;;;;24.46;55.77;99651.31;5134273;27;20045;-82
2023/05/27 10:33:38;;;;;;;3.10;1.95;;;;;;;24.87;54.42;99654.63;5133855;27;20450;-81
2023/05/27 10:36:07;;;;;;;7.80;3.95;;;;;;;25.07;52.90;99643.19;5131196;27;20505;-82
2023/05/27 10:38:32;;;;;;;3.33;1.70;;;;;;;25.31;54.43;99645.00;5133198;27;20030;-80
2023/05/27 10:41:03;;;;;;;3.63;1.73;;;;;;;25.58;49.54;99631.22;5132702;27;20035;-81
2023/05/27 10:43:35;;;;;;;5.28;2.25;;;;;;;25.51;52.73;99617.31;5133174;27;20081;-80
2023/05/27 10:46:07;;;;;;;3.92;1.80;;;;;;;25.67;55.22;99635.88;5132497;27;20042;-81
2023/05/27 10:48:33;;;;;;;3.60;2.03;;;;;;;25.88;49.81;99621.66;5133009;27;20089;-81
2023/05/27 10:50:59;;;;;;;5.03;2.60;;;;;;;25.99;49.82;99610.84;5132756;27;20113;-80
2023/05/27 10:53:28;;;;;;;3.42;2.22;;;;;;;26.16;49.07;99628.41;5132990;27;20458;-81
2023/05/27 10:55:53;;;;;;;1.98;1.15;;;;;;;25.50;47.93;99585.91;5130810;27;20420;-82
2023/05/27 10:58:20;;;;;;;1.48;1.10;;;;;;;25.91;50.63;99621.41;5132754;27;20023;-82
2023/05/27 11:00:52;;;;;;;1.95;1.30;;;;;;;26.00;49.90;99582.00;5132635;27;20389;-84
2023/05/27 11:03:22;;;;;;;1.50;1.08;;;;;;;26.06;44.71;99593.16;5130544;27;20073;-80
2023/05/27 11:06:01;;;;;;;2.28;1.23;;;;;;;26.23;45.72;99582.84;5132635;27;20023;-84
2023/05/27 11:08:26;;;;;;;3.15;1.42;;;;;;;26.14;46.17;99570.06;5132377;27;20113;-82
2023/05/27 11:11:00;;;;;;;1.92;1.15;;;;;;;25.92;50.07;99574.50;5132369;27;20108;-82
2023/05/27 11:13:36;;;;;;;5.47;1.65;;;;;;;26.14;50.47;99578.19;5132431;27;20115;-83
2023/05/27 11:16:05;;;;;;;7.05;1.70;;;;;;;26.41;48.69;99594.81;5130331;27;20031;-85
2023/05/27 11:18:58;;;;;;;2.25;1.35;;;;;;;26.52;50.14;99593.06;5132466;27;20039;-85
2023/05/27 11:21:23;;;;;;;1.95;1.23;;;;;;;26.35;45.02;99583.66;5127292;27;20485;-85
2023/05/27 11:23:49;;;;;;;1.90;0.90;;;;;;;26.02;41.37;99564.66;5130439;27;20050;-86
2023/05/27 11:26:20;;;;;;;2.95;1.60;;;;;;;26.36;43.01;99536.72;5131888;27;20110;-85
2023/05/27 11:28:49;;;;;;;2.30;1.10;;;;;;;26.85;40.57;99565.06;5130982;27;20190;-86
2023/05/27 11:31:15;;;;;;;2.72;1.60;;;;;;;26.16;44.71;99565.41;5132395;27;20046;-84
2023/05/27 11:33:45;;;;;;;1.55;0.70;;;;;;;26.36;40.44;99558.34;5131092;27;20407;-86
2023/05/27 11:36:13;;;;;;;2.38;1.15;;;;;;;26.75;42.70;99561.41;5131968;27;20027;-88